sensor_id;sensor_type;location;lat;lon;timestamp;pressure;altitude;pressure_sealevel;temperature;humidity
6532;BME280;3299;42.004;24.868;2024-01-16T00:00:54;96759.78;;;2.71;90.62
6532;BME280;3299;42.004;24.868;2024-01-16T00:03:19;96851.66;;;3.24;91.60
6532;BME280;3299;42.004;24.868;2024-01-16T00:05:45;96754.22;;;2.65;92.23
6532;BME280;3299;42.004;24.868;2024-01-16T00:08:10;96849.28;;;3.21;92.79
6532;BME280;3299;42.004;24.868;2024-01-16T00:10:35;96758.09;;;2.70;92.94
6532;BME280;3299;42.004;24.868;2024-01-16T00:13:01;96809.59;;;3.03;93.19
6532;BME280;3299;42.004;24.868;2024-01-16T00:15:26;96759.59;;;2.87;92.97
6532;BME280;3299;42.004;24.868;2024-01-16T00:17:52;96767.19;;;2.88;93.29
6532;BME280;3299;42.004;24.868;2024-01-16T00:20:18;96821.00;;;3.24;93.36
6532;BME280;3299;42.004;24.868;2024-01-16T00:22:44;96764.72;;;2.87;93.20
6532;BME280;3299;42.004;24.868;2024-01-16T00:25:09;96827.75;;;3.25;93.02
6532;BME280;3299;42.004;24.868;2024-01-16T00:27:36;96796.66;;;3.19;92.76
6532;BME280;3299;42.004;24.868;2024-01-16T00:30:01;96737.84;;;2.94;91.39
6532;BME280;3299;42.004;24.868;2024-01-16T00:32:27;96732.31;;;2.87;91.57
6532;BME280;3299;42.004;24.868;2024-01-16T00:34:52;96771.41;;;3.14;90.99
6532;BME280;3299;42.004;24.868;2024-01-16T00:37:18;96790.00;;;3.16;90.97
6532;BME280;3299;42.004;24.868;2024-01-16T00:39:43;96762.16;;;2.99;91.46
6532;BME280;3299;42.004;24.868;2024-01-16T00:42:08;96822.22;;;3.31;92.20
6532;BME280;3299;42.004;24.868;2024-01-16T00:44:34;96733.63;;;2.80;92.37
6532;BME280;3299;42.004;24.868;2024-01-16T00:47:00;96821.19;;;3.21;92.96
6532;BME280;3299;42.004;24.868;2024-01-16T00:49:27;96828.31;;;3.16;93.42
6532;BME280;3299;42.004;24.868;2024-01-16T00:51:53;96819.63;;;3.19;93.59
6532;BME280;3299;42.004;24.868;2024-01-16T00:54:18;96793.56;;;3.01;93.37
6532;BME280;3299;42.004;24.868;2024-01-16T00:56:44;96770.22;;;2.93;92.58
6532;BME280;3299;42.004;24.868;2024-01-16T00:59:09;96774.53;;;2.93;92.79
6532;BME280;3299;42.004;24.868;2024-01-16T01:01:37;96805.31;;;3.16;93.12
6532;BME280;3299;42.004;24.868;2024-01-16T01:04:03;96753.38;;;2.91;93.36
6532;BME280;3299;42.004;24.868;2024-01-16T01:06:28;96778.22;;;3.01;93.00
6532;BME280;3299;42.004;24.868;2024-01-16T01:08:54;96746.63;;;2.90;93.13
6532;BME280;3299;42.004;24.868;2024-01-16T01:11:19;96747.75;;;2.86;92.84
6532;BME280;3299;42.004;24.868;2024-01-16T01:13:45;96779.56;;;3.07;92.82
6532;BME280;3299;42.004;24.868;2024-01-16T01:16:10;96762.34;;;2.84;93.00
6532;BME280;3299;42.004;24.868;2024-01-16T01:18:35;96794.53;;;2.86;93.36
6532;BME280;3299;42.004;24.868;2024-01-16T01:21:01;96755.94;;;2.64;94.02
6532;BME280;3299;42.004;24.868;2024-01-16T01:23:26;96797.13;;;2.99;93.29
6532;BME280;3299;42.004;24.868;2024-01-16T01:25:52;96789.25;;;3.02;92.84
6532;BME280;3299;42.004;24.868;2024-01-16T01:28:17;96739.50;;;2.56;92.41
6532;BME280;3299;42.004;24.868;2024-01-16T01:30:43;96739.41;;;2.31;94.04
6532;BME280;3299;42.004;24.868;2024-01-16T01:33:08;96747.13;;;2.29;94.65
6532;BME280;3299;42.004;24.868;2024-01-16T01:35:33;96798.88;;;2.72;94.00
6532;BME280;3299;42.004;24.868;2024-01-16T01:37:59;96806.59;;;2.84;92.85
6532;BME280;3299;42.004;24.868;2024-01-16T01:40:24;96778.53;;;2.70;92.02
6532;BME280;3299;42.004;24.868;2024-01-16T01:42:50;96778.91;;;2.64;92.03
6532;BME280;3299;42.004;24.868;2024-01-16T01:45:15;96689.06;;;2.06;92.58
6532;BME280;3299;42.004;24.868;2024-01-16T01:47:41;96771.16;;;2.53;93.24
6532;BME280;3299;42.004;24.868;2024-01-16T01:50:10;96733.09;;;2.36;93.50
6532;BME280;3299;42.004;24.868;2024-01-16T01:52:38;96758.25;;;2.42;94.41
6532;BME280;3299;42.004;24.868;2024-01-16T01:55:06;96674.41;;;1.83;94.65
6532;BME280;3299;42.004;24.868;2024-01-16T01:57:33;96674.75;;;1.91;94.64
6532;BME280;3299;42.004;24.868;2024-01-16T02:00:00;96769.47;;;2.52;94.91
6532;BME280;3299;42.004;24.868;2024-01-16T02:02:26;96769.47;;;2.52;94.21
6532;BME280;3299;42.004;24.868;2024-01-16T02:04:52;96713.84;;;2.18;94.10
6532;BME280;3299;42.004;24.868;2024-01-16T02:07:17;96690.34;;;2.13;93.78
6532;BME280;3299;42.004;24.868;2024-01-16T02:09:44;96790.97;;;2.89;89.51
6532;BME280;3299;42.004;24.868;2024-01-16T02:12:09;96720.38;;;2.49;87.46
6532;BME280;3299;42.004;24.868;2024-01-16T02:14:35;96754.53;;;2.60;87.88
6532;BME280;3299;42.004;24.868;2024-01-16T02:17:00;96744.41;;;2.59;88.88
6532;BME280;3299;42.004;24.868;2024-01-16T02:19:25;96761.06;;;2.64;89.98
6532;BME280;3299;42.004;24.868;2024-01-16T02:21:53;96794.97;;;2.93;90.67
6532;BME280;3299;42.004;24.868;2024-01-16T02:24:20;96727.31;;;2.47;90.48
6532;BME280;3299;42.004;24.868;2024-01-16T02:26:46;96708.38;;;2.37;90.75
6532;BME280;3299;42.004;24.868;2024-01-16T02:29:12;96753.22;;;2.67;90.35
6532;BME280;3299;42.004;24.868;2024-01-16T02:31:38;96761.97;;;2.63;90.55
6532;BME280;3299;42.004;24.868;2024-01-16T02:34:03;96720.19;;;2.25;90.99
6532;BME280;3299;42.004;24.868;2024-01-16T02:36:29;96819.66;;;2.80;91.42
6532;BME280;3299;42.004;24.868;2024-01-16T02:38:55;96817.03;;;2.67;91.26
6532;BME280;3299;42.004;24.868;2024-01-16T02:41:20;96777.19;;;2.38;91.78
6532;BME280;3299;42.004;24.868;2024-01-16T02:43:46;96828.16;;;2.66;92.69
6532;BME280;3299;42.004;24.868;2024-01-16T02:46:12;96833.22;;;2.54;93.00
6532;BME280;3299;42.004;24.868;2024-01-16T02:48:38;96788.16;;;2.26;93.57
6532;BME280;3299;42.004;24.868;2024-01-16T02:51:04;96739.22;;;1.93;93.78
6532;BME280;3299;42.004;24.868;2024-01-16T02:53:30;96837.50;;;2.53;94.22
6532;BME280;3299;42.004;24.868;2024-01-16T02:55:56;96763.63;;;1.97;94.19
6532;BME280;3299;42.004;24.868;2024-01-16T02:58:28;96732.00;;;1.86;94.24
6532;BME280;3299;42.004;24.868;2024-01-16T03:00:54;96735.56;;;1.97;94.25
6532;BME280;3299;42.004;24.868;2024-01-16T03:03:20;96813.38;;;2.45;94.35
6532;BME280;3299;42.004;24.868;2024-01-16T03:05:46;96768.31;;;2.17;94.74
6532;BME280;3299;42.004;24.868;2024-01-16T03:08:12;96826.63;;;2.50;94.72
6532;BME280;3299;42.004;24.868;2024-01-16T03:10:38;96785.06;;;2.21;94.70
6532;BME280;3299;42.004;24.868;2024-01-16T03:13:03;96834.97;;;2.53;94.84
6532;BME280;3299;42.004;24.868;2024-01-16T03:15:29;96729.88;;;2.06;94.32
6532;BME280;3299;42.004;24.868;2024-01-16T03:17:58;96835.63;;;2.69;94.36
6532;BME280;3299;42.004;24.868;2024-01-16T03:20:24;96786.00;;;2.47;94.11
6532;BME280;3299;42.004;24.868;2024-01-16T03:22:49;96720.50;;;2.07;94.32
6532;BME280;3299;42.004;24.868;2024-01-16T03:25:16;96759.00;;;2.30;94.30
6532;BME280;3299;42.004;24.868;2024-01-16T03:27:41;96751.34;;;2.30;94.55
6532;BME280;3299;42.004;24.868;2024-01-16T03:30:07;96783.38;;;2.48;94.62
6532;BME280;3299;42.004;24.868;2024-01-16T03:32:34;96745.13;;;2.34;94.58
6532;BME280;3299;42.004;24.868;2024-01-16T03:34:59;96780.22;;;2.57;94.51
6532;BME280;3299;42.004;24.868;2024-01-16T03:37:25;96779.44;;;2.57;94.94
6532;BME280;3299;42.004;24.868;2024-01-16T03:39:50;96823.47;;;2.99;95.58
6532;BME280;3299;42.004;24.868;2024-01-16T03:42:16;96768.53;;;2.67;96.45
6532;BME280;3299;42.004;24.868;2024-01-16T03:44:41;96825.88;;;3.15;97.22
6532;BME280;3299;42.004;24.868;2024-01-16T03:47:08;96712.22;;;2.56;97.48
6532;BME280;3299;42.004;24.868;2024-01-16T03:49:33;96726.97;;;2.78;98.33
6532;BME280;3299;42.004;24.868;2024-01-16T03:51:59;96780.38;;;3.07;97.93
6532;BME280;3299;42.004;24.868;2024-01-16T03:54:25;96771.88;;;2.94;97.34
6532;BME280;3299;42.004;24.868;2024-01-16T03:56:51;96756.22;;;2.86;96.69
6532;BME280;3299;42.004;24.868;2024-01-16T03:59:16;96782.91;;;2.95;96.56
6532;BME280;3299;42.004;24.868;2024-01-16T04:01:42;96844.78;;;3.25;96.47
6532;BME280;3299;42.004;24.868;2024-01-16T04:04:10;96825.66;;;3.05;96.74
6532;BME280;3299;42.004;24.868;2024-01-16T04:06:35;96800.88;;;2.93;96.17
6532;BME280;3299;42.004;24.868;2024-01-16T04:09:01;96810.38;;;2.91;95.86
6532;BME280;3299;42.004;24.868;2024-01-16T04:11:28;96812.94;;;2.91;96.01
6532;BME280;3299;42.004;24.868;2024-01-16T04:13:53;96810.59;;;2.88;96.39
6532;BME280;3299;42.004;24.868;2024-01-16T04:16:19;96815.16;;;2.83;96.76
6532;BME280;3299;42.004;24.868;2024-01-16T04:18:44;96832.13;;;2.84;97.19
6532;BME280;3299;42.004;24.868;2024-01-16T04:21:10;96932.97;;;3.44;97.50
6532;BME280;3299;42.004;24.868;2024-01-16T04:23:36;96924.91;;;3.50;97.17
6532;BME280;3299;42.004;24.868;2024-01-16T04:26:02;96912.34;;;3.47;97.32
6532;BME280;3299;42.004;24.868;2024-01-16T04:28:27;96906.78;;;3.41;97.58
6532;BME280;3299;42.004;24.868;2024-01-16T04:30:53;96843.09;;;2.99;97.67
6532;BME280;3299;42.004;24.868;2024-01-16T04:33:18;96851.22;;;3.05;97.69
6532;BME280;3299;42.004;24.868;2024-01-16T04:35:44;96873.66;;;3.27;97.50
6532;BME280;3299;42.004;24.868;2024-01-16T04:38:10;96944.00;;;3.71;97.57
6532;BME280;3299;42.004;24.868;2024-01-16T04:40:35;96845.50;;;3.14;97.78
6532;BME280;3299;42.004;24.868;2024-01-16T04:43:01;96942.38;;;3.70;98.25
6532;BME280;3299;42.004;24.868;2024-01-16T04:45:27;96942.38;;;3.70;98.70
6532;BME280;3299;42.004;24.868;2024-01-16T04:47:53;96872.91;;;3.25;98.93
6532;BME280;3299;42.004;24.868;2024-01-16T04:50:18;96909.78;;;3.47;99.52
6532;BME280;3299;42.004;24.868;2024-01-16T04:52:44;96860.81;;;3.14;99.71
6532;BME280;3299;42.004;24.868;2024-01-16T04:55:10;96892.59;;;3.49;100.00
6532;BME280;3299;42.004;24.868;2024-01-16T04:57:35;96926.22;;;3.82;100.00
6532;BME280;3299;42.004;24.868;2024-01-16T05:00:01;96893.66;;;3.59;100.00
6532;BME280;3299;42.004;24.868;2024-01-16T05:02:26;96922.31;;;3.77;96.55
6532;BME280;3299;42.004;24.868;2024-01-16T05:04:52;96877.25;;;3.49;97.42
6532;BME280;3299;42.004;24.868;2024-01-16T05:07:18;96968.63;;;4.11;97.18
6532;BME280;3299;42.004;24.868;2024-01-16T05:09:46;96892.03;;;3.58;97.64
6532;BME280;3299;42.004;24.868;2024-01-16T05:12:11;96941.06;;;3.90;97.66
6532;BME280;3299;42.004;24.868;2024-01-16T05:14:37;96937.59;;;3.91;97.18
6532;BME280;3299;42.004;24.868;2024-01-16T05:17:02;96985.41;;;4.15;97.83
6532;BME280;3299;42.004;24.868;2024-01-16T05:19:28;96902.25;;;3.71;97.97
6532;BME280;3299;42.004;24.868;2024-01-16T05:21:53;96941.59;;;4.07;97.24
6532;BME280;3299;42.004;24.868;2024-01-16T05:24:19;96961.34;;;4.30;97.14
6532;BME280;3299;42.004;24.868;2024-01-16T05:26:45;96975.59;;;4.34;97.16
6532;BME280;3299;42.004;24.868;2024-01-16T05:29:10;96954.28;;;4.21;96.93
6532;BME280;3299;42.004;24.868;2024-01-16T05:31:40;96999.56;;;4.46;97.63
6532;BME280;3299;42.004;24.868;2024-01-16T05:34:07;97002.03;;;4.47;98.29
6532;BME280;3299;42.004;24.868;2024-01-16T05:36:33;96918.25;;;3.99;98.07
6532;BME280;3299;42.004;24.868;2024-01-16T05:38:58;96946.81;;;4.18;97.41
6532;BME280;3299;42.004;24.868;2024-01-16T05:41:23;96932.19;;;4.08;97.54
6532;BME280;3299;42.004;24.868;2024-01-16T05:43:49;96999.16;;;4.39;98.03
6532;BME280;3299;42.004;24.868;2024-01-16T05:46:14;96947.28;;;3.98;98.49
6532;BME280;3299;42.004;24.868;2024-01-16T05:48:40;97007.34;;;4.32;98.41
6532;BME280;3299;42.004;24.868;2024-01-16T05:51:05;97074.53;;;4.60;98.55
6532;BME280;3299;42.004;24.868;2024-01-16T05:53:31;97098.72;;;4.69;97.47
6532;BME280;3299;42.004;24.868;2024-01-16T05:55:56;97050.56;;;4.36;95.99
6532;BME280;3299;42.004;24.868;2024-01-16T05:58:22;97124.25;;;4.70;90.38
6532;BME280;3299;42.004;24.868;2024-01-16T06:00:47;97117.47;;;4.57;88.72
6532;BME280;3299;42.004;24.868;2024-01-16T06:03:13;97082.91;;;4.25;90.03
6532;BME280;3299;42.004;24.868;2024-01-16T06:05:38;97133.31;;;4.37;89.36
6532;BME280;3299;42.004;24.868;2024-01-16T06:08:04;97059.75;;;3.87;88.99
6532;BME280;3299;42.004;24.868;2024-01-16T06:10:29;97135.69;;;4.13;89.88
6532;BME280;3299;42.004;24.868;2024-01-16T06:12:55;97043.72;;;3.45;90.52
6532;BME280;3299;42.004;24.868;2024-01-16T06:15:20;97089.84;;;3.70;91.52
6532;BME280;3299;42.004;24.868;2024-01-16T06:17:46;97144.81;;;3.91;93.01
6532;BME280;3299;42.004;24.868;2024-01-16T06:20:11;97043.91;;;3.42;94.07
6532;BME280;3299;42.004;24.868;2024-01-16T06:22:37;97096.44;;;3.74;98.26
6532;BME280;3299;42.004;24.868;2024-01-16T06:25:02;97037.75;;;3.32;99.07
6532;BME280;3299;42.004;24.868;2024-01-16T06:27:28;97146.16;;;4.23;100.00
6532;BME280;3299;42.004;24.868;2024-01-16T06:29:53;97086.75;;;4.05;100.00
6532;BME280;3299;42.004;24.868;2024-01-16T06:32:19;97106.13;;;4.61;100.00
6532;BME280;3299;42.004;24.868;2024-01-16T06:34:44;97186.81;;;5.43;100.00
6532;BME280;3299;42.004;24.868;2024-01-16T06:37:10;97153.84;;;5.74;100.00
6532;BME280;3299;42.004;24.868;2024-01-16T06:39:36;97146.66;;;5.79;100.00
6532;BME280;3299;42.004;24.868;2024-01-16T06:42:02;97122.66;;;5.80;100.00
6532;BME280;3299;42.004;24.868;2024-01-16T06:44:29;97177.03;;;6.21;100.00
6532;BME280;3299;42.004;24.868;2024-01-16T06:46:55;97181.41;;;6.32;100.00
6532;BME280;3299;42.004;24.868;2024-01-16T06:49:20;97185.31;;;6.37;100.00
6532;BME280;3299;42.004;24.868;2024-01-16T06:51:46;97178.06;;;6.42;100.00
6532;BME280;3299;42.004;24.868;2024-01-16T06:54:11;97152.34;;;6.31;100.00
6532;BME280;3299;42.004;24.868;2024-01-16T06:56:37;97236.84;;;6.94;100.00
6532;BME280;3299;42.004;24.868;2024-01-16T06:59:02;97210.94;;;6.73;100.00
6532;BME280;3299;42.004;24.868;2024-01-16T07:01:28;97266.94;;;7.15;100.00
6532;BME280;3299;42.004;24.868;2024-01-16T07:03:53;97270.69;;;7.22;100.00
6532;BME280;3299;42.004;24.868;2024-01-16T07:06:19;97257.84;;;7.22;100.00
6532;BME280;3299;42.004;24.868;2024-01-16T07:08:44;97259.00;;;7.18;100.00
6532;BME280;3299;42.004;24.868;2024-01-16T07:11:10;97275.41;;;7.28;100.00
6532;BME280;3299;42.004;24.868;2024-01-16T07:13:39;97260.69;;;7.30;100.00
6532;BME280;3299;42.004;24.868;2024-01-16T07:16:04;97298.50;;;7.52;100.00
6532;BME280;3299;42.004;24.868;2024-01-16T07:18:30;97293.72;;;7.58;99.06
6532;BME280;3299;42.004;24.868;2024-01-16T07:20:55;97237.25;;;7.22;98.56
6532;BME280;3299;42.004;24.868;2024-01-16T07:23:21;97316.44;;;7.64;98.88
6532;BME280;3299;42.004;24.868;2024-01-16T07:25:46;97274.84;;;7.36;98.62
6532;BME280;3299;42.004;24.868;2024-01-16T07:28:12;97270.75;;;7.44;97.63
6532;BME280;3299;42.004;24.868;2024-01-16T07:30:37;97245.25;;;7.41;96.31
6532;BME280;3299;42.004;24.868;2024-01-16T07:33:03;97340.38;;;7.88;95.63
6532;BME280;3299;42.004;24.868;2024-01-16T07:35:29;97355.59;;;8.02;94.81
6532;BME280;3299;42.004;24.868;2024-01-16T07:37:55;97262.69;;;7.49;93.89
6532;BME280;3299;42.004;24.868;2024-01-16T07:40:20;97290.69;;;7.64;93.21
6532;BME280;3299;42.004;24.868;2024-01-16T07:42:46;97329.34;;;7.86;92.37
6532;BME280;3299;42.004;24.868;2024-01-16T07:45:11;97308.09;;;7.61;92.90
6532;BME280;3299;42.004;24.868;2024-01-16T07:47:37;97365.22;;;8.00;93.49
6532;BME280;3299;42.004;24.868;2024-01-16T07:50:03;97390.25;;;8.09;94.48
6532;BME280;3299;42.004;24.868;2024-01-16T07:52:28;97394.72;;;8.07;94.66
6532;BME280;3299;42.004;24.868;2024-01-16T07:54:54;97386.94;;;7.85;95.90
6532;BME280;3299;42.004;24.868;2024-01-16T07:57:19;97401.94;;;7.91;96.52
6532;BME280;3299;42.004;24.868;2024-01-16T07:59:46;97383.13;;;7.67;97.07
6532;BME280;3299;42.004;24.868;2024-01-16T08:02:11;97425.47;;;7.87;96.82
6532;BME280;3299;42.004;24.868;2024-01-16T08:04:37;97411.50;;;7.78;96.68
6532;BME280;3299;42.004;24.868;2024-01-16T08:07:03;97394.81;;;7.60;95.70
6532;BME280;3299;42.004;24.868;2024-01-16T08:09:28;97426.34;;;7.75;95.03
6532;BME280;3299;42.004;24.868;2024-01-16T08:11:54;97379.63;;;7.34;95.80
6532;BME280;3299;42.004;24.868;2024-01-16T08:14:19;97375.53;;;7.31;95.02
6532;BME280;3299;42.004;24.868;2024-01-16T08:16:45;97454.09;;;7.82;94.96
6532;BME280;3299;42.004;24.868;2024-01-16T08:19:10;97421.69;;;7.56;94.45
6532;BME280;3299;42.004;24.868;2024-01-16T08:21:36;97411.66;;;7.53;94.54
6532;BME280;3299;42.004;24.868;2024-01-16T08:24:01;97390.06;;;7.43;91.67
6532;BME280;3299;42.004;24.868;2024-01-16T08:26:27;97399.25;;;7.58;89.05
6532;BME280;3299;42.004;24.868;2024-01-16T08:28:53;97400.66;;;7.62;88.09
6532;BME280;3299;42.004;24.868;2024-01-16T08:31:19;97454.03;;;7.95;88.62
6532;BME280;3299;42.004;24.868;2024-01-16T08:33:45;97457.47;;;8.06;85.78
6532;BME280;3299;42.004;24.868;2024-01-16T08:36:11;97504.41;;;8.33;86.55
6532;BME280;3299;42.004;24.868;2024-01-16T08:38:36;97458.78;;;8.12;83.97
6532;BME280;3299;42.004;24.868;2024-01-16T08:41:02;97419.75;;;7.94;83.60
6532;BME280;3299;42.004;24.868;2024-01-16T08:43:31;97454.22;;;8.15;80.02
6532;BME280;3299;42.004;24.868;2024-01-16T08:45:57;97521.69;;;8.55;78.60
6532;BME280;3299;42.004;24.868;2024-01-16T08:48:22;97444.00;;;8.14;79.35
6532;BME280;3299;42.004;24.868;2024-01-16T08:50:47;97531.44;;;8.62;78.57
6532;BME280;3299;42.004;24.868;2024-01-16T08:53:13;97430.06;;;7.94;77.66
6532;BME280;3299;42.004;24.868;2024-01-16T08:55:38;97492.47;;;8.32;76.98
6532;BME280;3299;42.004;24.868;2024-01-16T08:58:04;97549.03;;;8.79;75.62
6532;BME280;3299;42.004;24.868;2024-01-16T09:00:29;97553.84;;;8.84;75.41
6532;BME280;3299;42.004;24.868;2024-01-16T09:02:55;97551.63;;;8.79;76.06
6532;BME280;3299;42.004;24.868;2024-01-16T09:05:20;97477.97;;;8.42;74.81
6532;BME280;3299;42.004;24.868;2024-01-16T09:07:50;97546.38;;;8.92;72.77
6532;BME280;3299;42.004;24.868;2024-01-16T09:10:16;97489.00;;;8.55;71.15
6532;BME280;3299;42.004;24.868;2024-01-16T09:12:42;97548.94;;;8.92;69.86
6532;BME280;3299;42.004;24.868;2024-01-16T09:15:08;97579.09;;;9.02;69.75
6532;BME280;3299;42.004;24.868;2024-01-16T09:17:33;97567.13;;;9.01;68.38
6532;BME280;3299;42.004;24.868;2024-01-16T09:19:59;97542.94;;;8.80;65.66
6532;BME280;3299;42.004;24.868;2024-01-16T09:22:24;97493.19;;;8.45;63.77
6532;BME280;3299;42.004;24.868;2024-01-16T09:24:50;97551.88;;;8.76;63.05
6532;BME280;3299;42.004;24.868;2024-01-16T09:27:15;97536.13;;;8.68;63.17
6532;BME280;3299;42.004;24.868;2024-01-16T09:29:41;97532.63;;;8.58;62.33
6532;BME280;3299;42.004;24.868;2024-01-16T09:32:07;97512.19;;;8.44;62.94
6532;BME280;3299;42.004;24.868;2024-01-16T09:34:33;97524.13;;;8.45;61.51
6532;BME280;3299;42.004;24.868;2024-01-16T09:36:58;97489.09;;;8.32;61.99
6532;BME280;3299;42.004;24.868;2024-01-16T09:39:26;97568.50;;;8.72;62.12
6532;BME280;3299;42.004;24.868;2024-01-16T09:41:51;97583.53;;;8.89;60.99
6532;BME280;3299;42.004;24.868;2024-01-16T09:44:18;97576.00;;;8.86;60.56
6532;BME280;3299;42.004;24.868;2024-01-16T09:46:44;97596.94;;;9.05;60.55
6532;BME280;3299;42.004;24.868;2024-01-16T09:49:15;97527.34;;;8.71;59.67
6532;BME280;3299;42.004;24.868;2024-01-16T09:51:43;97604.81;;;9.26;58.85
6532;BME280;3299;42.004;24.868;2024-01-16T09:54:08;97594.81;;;9.21;58.83
6532;BME280;3299;42.004;24.868;2024-01-16T09:56:35;97513.66;;;8.81;57.61
6532;BME280;3299;42.004;24.868;2024-01-16T09:59:06;97594.72;;;9.23;57.38
6532;BME280;3299;42.004;24.868;2024-01-16T10:01:33;97533.84;;;8.87;58.30
6532;BME280;3299;42.004;24.868;2024-01-16T10:03:59;97605.13;;;9.21;58.34
6532;BME280;3299;42.004;24.868;2024-01-16T10:06:27;97579.22;;;9.12;57.35
6532;BME280;3299;42.004;24.868;2024-01-16T10:08:53;97577.47;;;9.12;57.14
6532;BME280;3299;42.004;24.868;2024-01-16T10:11:18;97593.28;;;9.30;56.24
6532;BME280;3299;42.004;24.868;2024-01-16T10:13:47;97608.47;;;9.45;56.27
6532;BME280;3299;42.004;24.868;2024-01-16T10:16:13;97627.22;;;9.47;55.49
6532;BME280;3299;42.004;24.868;2024-01-16T10:18:38;97592.22;;;9.21;53.79
6532;BME280;3299;42.004;24.868;2024-01-16T10:21:04;97642.47;;;9.50;53.13
6532;BME280;3299;42.004;24.868;2024-01-16T10:23:31;97630.75;;;9.57;53.77
6532;BME280;3299;42.004;24.868;2024-01-16T10:28:32;97625.59;;;9.46;52.57
6532;BME280;3299;42.004;24.868;2024-01-16T10:31:07;97618.53;;;9.37;51.51
6532;BME280;3299;42.004;24.868;2024-01-16T10:33:33;97631.44;;;9.37;52.20
6532;BME280;3299;42.004;24.868;2024-01-16T10:38:38;97565.47;;;8.78;53.15
6532;BME280;3299;42.004;24.868;2024-01-16T10:41:06;97643.75;;;9.23;51.97
6532;BME280;3299;42.004;24.868;2024-01-16T10:43:31;97658.19;;;9.25;52.16
6532;BME280;3299;42.004;24.868;2024-01-16T10:48:39;97659.34;;;9.21;52.21
6532;BME280;3299;42.004;24.868;2024-01-16T10:51:18;97632.78;;;8.97;52.68
6532;BME280;3299;42.004;24.868;2024-01-16T10:53:45;97640.56;;;9.08;52.57
6532;BME280;3299;42.004;24.868;2024-01-16T10:56:12;97626.47;;;9.01;52.14
6532;BME280;3299;42.004;24.868;2024-01-16T10:58:41;97608.50;;;8.89;51.99
6532;BME280;3299;42.004;24.868;2024-01-16T11:01:11;97597.59;;;8.85;51.76
6532;BME280;3299;42.004;24.868;2024-01-16T11:03:50;97607.81;;;8.98;52.08
6532;BME280;3299;42.004;24.868;2024-01-16T11:06:17;97628.00;;;9.04;52.27
6532;BME280;3299;42.004;24.868;2024-01-16T11:08:45;97629.78;;;9.14;52.36
6532;BME280;3299;42.004;24.868;2024-01-16T11:11:13;97625.31;;;9.27;51.37
6532;BME280;3299;42.004;24.868;2024-01-16T11:13:39;97569.34;;;8.95;51.20
6532;BME280;3299;42.004;24.868;2024-01-16T11:16:07;97634.97;;;9.47;50.88
6532;BME280;3299;42.004;24.868;2024-01-16T11:18:35;97632.72;;;9.53;50.46
6532;BME280;3299;42.004;24.868;2024-01-16T11:21:02;97624.41;;;9.61;49.77
6532;BME280;3299;42.004;24.868;2024-01-16T11:23:29;97659.38;;;9.98;50.10
6532;BME280;3299;42.004;24.868;2024-01-16T11:25:55;97666.53;;;10.05;48.75
6532;BME280;3299;42.004;24.868;2024-01-16T11:28:27;97690.97;;;10.23;48.50
6532;BME280;3299;42.004;24.868;2024-01-16T11:30:53;97676.72;;;10.29;49.09
6532;BME280;3299;42.004;24.868;2024-01-16T11:35:56;97670.38;;;10.33;47.71
6532;BME280;3299;42.004;24.868;2024-01-16T11:38:23;97602.88;;;9.93;46.63
6532;BME280;3299;42.004;24.868;2024-01-16T11:40:52;97677.63;;;10.50;46.41
6532;BME280;3299;42.004;24.868;2024-01-16T11:45:59;97679.09;;;10.63;45.77
6532;BME280;3299;42.004;24.868;2024-01-16T11:48:25;97687.00;;;10.62;45.66
6532;BME280;3299;42.004;24.868;2024-01-16T11:50:51;97641.38;;;10.29;45.10
6532;BME280;3299;42.004;24.868;2024-01-16T11:53:37;97619.22;;;10.05;45.03
6532;BME280;3299;42.004;24.868;2024-01-16T11:56:32;97709.34;;;10.52;45.36
6532;BME280;3299;42.004;24.868;2024-01-16T12:01:53;97686.69;;;10.44;44.84
6532;BME280;3299;42.004;24.868;2024-01-16T12:04:22;97713.78;;;10.61;44.88
6532;BME280;3299;42.004;24.868;2024-01-16T12:07:00;97719.66;;;10.63;43.97
6532;BME280;3299;42.004;24.868;2024-01-16T12:09:27;97712.50;;;10.55;44.40
6532;BME280;3299;42.004;24.868;2024-01-16T12:11:56;97718.34;;;10.68;43.92
6532;BME280;3299;42.004;24.868;2024-01-16T12:14:23;97704.88;;;10.54;43.92
6532;BME280;3299;42.004;24.868;2024-01-16T12:16:51;97688.81;;;10.39;43.85
6532;BME280;3299;42.004;24.868;2024-01-16T12:19:17;97739.38;;;10.75;43.67
6532;BME280;3299;42.004;24.868;2024-01-16T12:21:44;97740.06;;;10.77;44.15
6532;BME280;3299;42.004;24.868;2024-01-16T12:24:11;97714.97;;;10.68;43.90
6532;BME280;3299;42.004;24.868;2024-01-16T12:26:37;97732.81;;;10.71;43.88
6532;BME280;3299;42.004;24.868;2024-01-16T12:29:02;97705.63;;;10.45;44.07
6532;BME280;3299;42.004;24.868;2024-01-16T12:31:28;97727.94;;;10.46;44.57
6532;BME280;3299;42.004;24.868;2024-01-16T12:34:14;97739.72;;;10.39;43.96
6532;BME280;3299;42.004;24.868;2024-01-16T12:36:39;97645.06;;;9.72;44.96
6532;BME280;3299;42.004;24.868;2024-01-16T12:39:06;97618.16;;;9.42;44.38
6532;BME280;3299;42.004;24.868;2024-01-16T12:41:43;97750.03;;;9.95;44.07
6532;BME280;3299;42.004;24.868;2024-01-16T12:44:10;97737.34;;;9.70;44.59
6532;BME280;3299;42.004;24.868;2024-01-16T12:46:36;97762.38;;;9.80;44.59
6532;BME280;3299;42.004;24.868;2024-01-16T12:49:02;97734.50;;;9.51;45.08
6532;BME280;3299;42.004;24.868;2024-01-16T12:51:28;97734.50;;;9.40;45.39
6532;BME280;3299;42.004;24.868;2024-01-16T12:53:54;97749.75;;;9.43;45.74
6532;BME280;3299;42.004;24.868;2024-01-16T12:56:19;97790.88;;;9.68;45.18
6532;BME280;3299;42.004;24.868;2024-01-16T12:58:46;97804.72;;;9.67;44.84
6532;BME280;3299;42.004;24.868;2024-01-16T13:01:41;97791.63;;;9.47;46.52
6532;BME280;3299;42.004;24.868;2024-01-16T13:04:07;97802.56;;;9.50;45.29
6532;BME280;3299;42.004;24.868;2024-01-16T13:06:33;97719.09;;;8.93;45.94
6532;BME280;3299;42.004;24.868;2024-01-16T13:09:06;97723.63;;;8.90;45.38
6532;BME280;3299;42.004;24.868;2024-01-16T13:11:48;97795.72;;;9.38;45.00
6532;BME280;3299;42.004;24.868;2024-01-16T13:14:14;97721.19;;;8.88;45.28
6532;BME280;3299;42.004;24.868;2024-01-16T13:16:40;97811.44;;;9.35;45.02
6532;BME280;3299;42.004;24.868;2024-01-16T13:19:05;97767.28;;;8.93;45.46
6532;BME280;3299;42.004;24.868;2024-01-16T13:21:35;97753.44;;;8.94;44.84
6532;BME280;3299;42.004;24.868;2024-01-16T13:24:05;97739.03;;;8.68;45.90
6532;BME280;3299;42.004;24.868;2024-01-16T13:26:30;97784.06;;;8.98;44.79
6532;BME280;3299;42.004;24.868;2024-01-16T13:28:57;97761.91;;;8.72;44.90
6532;BME280;3299;42.004;24.868;2024-01-16T13:31:22;97738.25;;;8.55;44.77